Terminal Aerodrome Forecast
Issued by NWS

Home | Current Version | Previous Version | Text Only | Print | Product List | Glossary On
Versions: 1 2 3 4 5 6 7 8 9 10 11 12 13 14 15 16 17 18 19 20 21
000
FTAK31 PAJN 230300 AAA
TAFAJN
TAF AMD
PAJN 230309Z 2303/2324 08008KT P6SM VCSH FEW020 BKN040 BKN060
      TEMPO 2303/2307 6SM -SHRA SCT020 BKN030 OVC040
     FM231000 09005KT 3SM BR VCSH BKN040 OVC050
     FM231500 08007KT 6SM BR VCSH SCT030 OVC050=

USA.gov is the U.S. government's official web portal to all federal, state and local government web resources and services.